Time;durP1;ratioP1;P1;durP2;ratioP2;P2;SDS_P1;SDS_P2;PMS_P1;PMS_P2;Temp;Humidity;BMP_temperature;BMP_pressure;BME280_temperature;BME280_humidity;BME280_pressure;Samples;Min_cycle;Max_cycle;Signal;HPM_P1;HPM_P2
2022/03/29 00:01:02;;;;;;;27.77;18.50;;;;;;;4.57;98.07;101559.34;5036212;28;20459;-44
2022/03/29 00:03:30;;;;;;;38.77;17.00;;;;;;;4.59;98.76;101543.38;5053544;28;20538;-45
2022/03/29 00:05:58;;;;;;;20.27;16.10;;;;;;;4.53;98.83;101536.84;5053836;28;20435;-44
2022/03/29 00:08:25;;;;;;;34.47;17.07;;;;;;;4.54;98.62;101548.25;5044897;28;20515;-44
2022/03/29 00:10:55;;;;;;;24.87;16.50;;;;;;;4.52;99.08;101542.25;5053491;28;20522;-46
2022/03/29 00:13:22;;;;;;;36.43;18.70;;;;;;;4.45;98.97;101553.34;5043793;28;20442;-44
2022/03/29 00:15:50;;;;;;;26.37;17.37;;;;;;;4.44;98.98;101540.31;5050028;28;20450;-44
2022/03/29 00:18:18;;;;;;;34.33;18.47;;;;;;;4.39;98.95;101526.69;5053862;28;20439;-44
2022/03/29 00:20:45;;;;;;;29.53;17.33;;;;;;;4.38;98.87;101525.00;5049518;28;20455;-43
2022/03/29 00:23:13;;;;;;;26.90;17.33;;;;;;;4.32;99.15;101533.47;5043955;28;20438;-43
2022/03/29 00:25:40;;;;;;;30.47;16.63;;;;;;;4.27;98.78;101531.22;5053770;28;20435;-47
2022/03/29 00:28:09;;;;;;;26.93;16.87;;;;;;;4.25;98.74;101532.34;5053389;28;20427;-46
2022/03/29 00:30:37;;;;;;;30.73;15.93;;;;;;;4.20;98.91;101519.56;5063132;28;20470;-45
2022/03/29 00:33:05;;;;;;;27.03;16.73;;;;;;;4.17;99.39;101511.94;5057938;28;20442;-44
2022/03/29 00:35:32;;;;;;;31.37;18.57;;;;;;;4.14;99.07;101506.06;5045693;28;20438;-44
2022/03/29 00:38:00;;;;;;;27.40;15.77;;;;;;;4.11;99.30;101503.72;5053212;28;20428;-44
2022/03/29 00:40:28;;;;;;;23.30;15.70;;;;;;;4.08;99.59;101511.91;5052403;28;20442;-44
2022/03/29 00:42:55;;;;;;;25.27;17.00;;;;;;;4.05;99.61;101515.66;5053162;28;20446;-47
2022/03/29 00:45:24;;;;;;;30.37;17.30;;;;;;;4.03;99.37;101516.75;5054071;28;20463;-46
2022/03/29 00:47:52;;;;;;;31.33;16.97;;;;;;;3.99;99.06;101504.78;5062463;28;20437;-45
2022/03/29 00:50:20;;;;;;;25.37;14.93;;;;;;;3.93;99.51;101482.44;5044536;28;20472;-45
2022/03/29 00:52:48;;;;;;;27.37;15.37;;;;;;;3.87;99.32;101493.53;5042636;28;20436;-44
2022/03/29 00:55:16;;;;;;;39.80;17.80;;;;;;;3.79;99.26;101496.81;5049798;28;20467;-48
2022/03/29 00:57:46;;;;;;;30.93;16.17;;;;;;;3.82;99.52;101496.53;5047605;28;20441;-48
2022/03/29 01:00:15;;;;;;;32.60;17.07;;;;;;;3.77;99.32;101490.00;5047244;28;20442;-44
2022/03/29 01:02:45;;;;;;;38.63;18.27;;;;;;;3.73;99.55;101491.28;5044298;28;20831;-45
2022/03/29 01:05:13;;;;;;;31.23;15.43;;;;;;;3.71;99.68;101487.91;5051744;28;20907;-46
2022/03/29 01:07:41;;;;;;;26.20;16.10;;;;;;;3.69;99.43;101485.41;5040678;28;20866;-43
2022/03/29 01:10:09;;;;;;;24.43;15.30;;;;;;;3.70;99.50;101468.59;5039463;28;20804;-45
2022/03/29 01:12:37;;;;;;;22.17;15.90;;;;;;;3.67;99.61;101463.63;5043606;28;20458;-43
2022/03/29 01:15:09;;;;;;;31.30;15.17;;;;;;;3.63;99.13;101464.84;5047894;28;20460;-45
2022/03/29 01:17:39;;;;;;;34.23;15.97;;;;;;;3.65;99.66;101468.19;5049765;28;20438;-43
2022/03/29 01:20:13;;;;;;;29.53;17.50;;;;;;;3.61;99.29;101465.97;5042376;28;20443;-43
2022/03/29 01:22:44;;;;;;;29.87;18.60;;;;;;;3.57;99.58;101477.75;5049869;28;20439;-43
2022/03/29 01:25:17;;;;;;;29.17;17.57;;;;;;;3.57;99.31;101465.38;5052166;28;20462;-43
2022/03/29 01:27:45;;;;;;;27.70;17.77;;;;;;;3.52;99.60;101451.78;5051493;28;20424;-43
2022/03/29 01:30:14;;;;;;;36.90;18.00;;;;;;;3.49;99.60;101461.75;5034798;28;20475;-45
2022/03/29 01:32:45;;;;;;;26.27;16.03;;;;;;;3.47;99.45;101455.75;5037166;28;20451;-45
2022/03/29 01:35:13;;;;;;;29.17;15.80;;;;;;;3.43;99.61;101455.22;5043971;28;21005;-43
2022/03/29 01:37:42;;;;;;;27.93;15.53;;;;;;;3.41;99.63;101453.66;5040105;28;20436;-46
2022/03/29 01:40:13;;;;;;;31.63;16.77;;;;;;;3.42;99.60;101450.91;5045224;28;20438;-43
2022/03/29 01:42:41;;;;;;;29.97;15.37;;;;;;;3.40;99.71;101442.31;5053151;28;20454;-43
2022/03/29 01:45:09;;;;;;;27.80;16.07;;;;;;;3.38;99.57;101452.13;5052648;28;20465;-43
2022/03/29 01:47:37;;;;;;;22.10;14.80;;;;;;;3.42;99.82;101442.16;5057913;28;21208;-46
2022/03/29 01:50:06;;;;;;;22.10;15.20;;;;;;;3.38;99.58;101438.09;5057587;28;20471;-43
2022/03/29 01:52:39;;;;;;;28.90;16.67;;;;;;;3.36;99.88;101440.88;5052694;28;20456;-43
2022/03/29 01:55:09;;;;;;;26.43;15.90;;;;;;;3.32;99.72;101428.94;5051686;28;20462;-45
2022/03/29 01:57:37;;;;;;;30.27;16.20;;;;;;;3.32;99.60;101431.56;5042260;28;20523;-44
2022/03/29 02:02:52;;;;;;;29.43;16.60;;;;;;;3.25;99.73;101420.75;5034615;28;20935;-46
2022/03/29 02:05:21;;;;;;;19.90;15.20;;;;;;;3.23;99.51;101427.94;5036463;28;20471;-44
2022/03/29 02:07:50;;;;;;;23.87;15.30;;;;;;;3.24;99.56;101429.59;5049658;28;20431;-44
2022/03/29 02:10:20;;;;;;;22.67;15.10;;;;;;;3.19;99.71;101426.53;5044397;28;20474;-44
2022/03/29 02:12:49;;;;;;;21.10;15.83;;;;;;;3.19;99.73;101429.19;5048528;28;20886;-43
2022/03/29 02:15:17;;;;;;;19.03;14.10;;;;;;;3.20;99.60;101422.09;5040601;28;20460;-45
2022/03/29 02:17:48;;;;;;;22.63;15.20;;;;;;;3.18;99.35;101421.38;5056013;28;20509;-45
2022/03/29 02:20:16;;;;;;;28.77;14.23;;;;;;;3.15;99.63;101411.13;5055770;28;20485;-44
2022/03/29 02:22:45;;;;;;;32.90;15.00;;;;;;;3.14;99.72;101410.28;5055938;28;20431;-43
2022/03/29 02:25:13;;;;;;;23.53;15.87;;;;;;;3.14;99.64;101402.38;5055639;28;20467;-43
2022/03/29 02:27:44;;;;;;;18.93;15.53;;;;;;;3.12;99.62;101403.47;5057573;28;20431;-44
2022/03/29 02:30:13;;;;;;;17.50;15.57;;;;;;;3.12;99.71;101395.56;5045053;28;20437;-43
2022/03/29 02:32:42;;;;;;;23.70;16.17;;;;;;;3.09;99.60;101399.31;5039421;28;20448;-43
2022/03/29 02:35:10;;;;;;;24.23;15.00;;;;;;;3.08;99.98;101395.00;5042709;28;20451;-43
2022/03/29 02:37:38;;;;;;;24.00;14.87;;;;;;;3.11;99.92;101401.78;5041542;28;20440;-44
2022/03/29 02:40:08;;;;;;;23.87;14.60;;;;;;;3.12;99.80;101403.47;5039815;28;20439;-45
2022/03/29 02:42:42;;;;;;;17.33;15.03;;;;;;;3.13;99.69;101386.69;5036907;28;20458;-46
2022/03/29 02:45:13;;;;;;;17.23;15.60;;;;;;;3.12;99.50;101404.31;5052187;28;21020;-45
2022/03/29 02:47:40;;;;;;;21.33;15.83;;;;;;;3.06;99.67;101394.31;5068574;28;20422;-44
2022/03/29 02:50:09;;;;;;;26.40;15.20;;;;;;;3.06;99.76;101386.41;5054737;28;20443;-45
2022/03/29 02:52:43;;;;;;;17.90;14.60;;;;;;;3.03;99.75;101386.66;5054644;28;20459;-45
2022/03/29 02:55:11;;;;;;;15.43;13.83;;;;;;;3.03;99.51;101388.44;5043952;28;20466;-44
2022/03/29 02:57:39;;;;;;;24.10;13.57;;;;;;;3.03;99.58;101377.91;5055021;28;20424;-45
2022/03/29 03:00:09;;;;;;;18.70;16.67;;;;;;;3.02;99.56;101384.13;5046133;28;20443;-43
2022/03/29 03:02:37;;;;;;;23.60;15.97;;;;;;;3.04;99.95;101387.50;5040870;28;20518;-43
2022/03/29 03:05:06;;;;;;;14.53;13.60;;;;;;;3.02;99.73;101384.13;5040610;28;21017;-43
2022/03/29 03:07:34;;;;;;;22.03;14.60;;;;;;;3.01;99.65;101383.34;5035273;28;20443;-43
2022/03/29 03:10:01;;;;;;;15.17;13.80;;;;;;;2.99;99.75;101387.03;5040540;28;20444;-44
2022/03/29 03:12:34;;;;;;;21.27;15.03;;;;;;;2.99;99.67;101384.41;5057376;28;20475;-46
2022/03/29 03:15:03;;;;;;;15.73;14.07;;;;;;;2.98;99.85;101388.88;5069731;28;20496;-45
2022/03/29 03:17:32;;;;;;;20.60;16.03;;;;;;;2.98;99.72;101385.38;5074174;28;20917;-44
2022/03/29 03:20:00;;;;;;;35.50;15.23;;;;;;;2.96;99.71;101392.56;5071976;28;20443;-43
2022/03/29 03:22:29;;;;;;;19.53;14.37;;;;;;;2.97;99.83;101396.88;5073968;28;20446;-44
2022/03/29 03:24:57;;;;;;;16.77;15.10;;;;;;;2.93;99.42;101393.66;5073755;28;20469;-44
2022/03/29 03:27:24;;;;;;;26.53;15.60;;;;;;;2.96;99.58;101387.31;5074149;28;20431;-43
2022/03/29 03:29:52;;;;;;;17.50;14.50;;;;;;;2.97;99.54;101383.72;5074186;28;20437;-44
2022/03/29 03:32:19;;;;;;;15.87;14.63;;;;;;;2.94;99.68;101373.44;5073723;28;20478;-45
2022/03/29 03:34:48;;;;;;;17.17;15.40;;;;;;;2.93;99.07;101374.44;5073433;28;20471;-43
2022/03/29 03:37:16;;;;;;;16.87;15.37;;;;;;;2.95;99.46;101360.16;5073868;28;20438;-45
2022/03/29 03:39:43;;;;;;;16.47;13.93;;;;;;;2.94;99.71;101369.00;5073663;28;20434;-44
2022/03/29 03:42:11;;;;;;;22.07;14.80;;;;;;;2.92;99.52;101375.38;5073535;28;20442;-46
2022/03/29 03:44:39;;;;;;;19.03;14.00;;;;;;;2.94;99.77;101378.72;5069726;28;20455;-43
2022/03/29 03:47:08;;;;;;;35.53;17.50;;;;;;;2.92;99.60;101378.00;5061767;28;20430;-45
2022/03/29 03:49:37;;;;;;;26.17;14.80;;;;;;;2.91;99.59;101381.59;5033593;28;20450;-45
2022/03/29 03:52:08;;;;;;;15.90;14.43;;;;;;;2.81;99.46;101370.22;5033434;28;20476;-43
2022/03/29 03:54:35;;;;;;;16.60;14.30;;;;;;;2.84;99.35;101365.47;5032970;28;20495;-44
2022/03/29 03:57:04;;;;;;;17.77;15.00;;;;;;;2.82;99.70;101370.06;5033970;28;20439;-43
2022/03/29 03:59:32;;;;;;;18.10;15.23;;;;;;;2.78;99.69;101364.22;5033551;28;20810;-43
2022/03/29 04:02:00;;;;;;;16.77;15.03;;;;;;;2.75;99.62;101361.84;5033103;28;20456;-45
2022/03/29 04:04:28;;;;;;;15.83;14.57;;;;;;;2.74;99.86;101356.72;5033086;28;20467;-43
2022/03/29 04:06:55;;;;;;;16.70;15.00;;;;;;;2.76;99.71;101360.03;5033598;28;20436;-43
2022/03/29 04:09:24;;;;;;;18.57;15.53;;;;;;;2.76;99.52;101357.41;5033705;28;20443;-44
2022/03/29 04:11:52;;;;;;;18.03;15.97;;;;;;;2.76;99.61;101362.69;5033032;28;20484;-43
2022/03/29 04:14:20;;;;;;;16.03;14.43;;;;;;;2.71;99.38;101359.63;5033112;28;21009;-43
2022/03/29 04:16:47;;;;;;;15.93;14.40;;;;;;;2.66;99.48;101359.16;5033067;28;20796;-44
2022/03/29 04:19:15;;;;;;;17.40;15.60;;;;;;;2.65;99.78;101353.06;5033077;28;20432;-44
2022/03/29 04:21:42;;;;;;;15.57;14.43;;;;;;;2.60;99.93;101349.97;5032676;28;20454;-43
2022/03/29 04:24:10;;;;;;;16.27;14.60;;;;;;;2.60;99.97;101347.34;5032629;28;20487;-44
2022/03/29 04:26:39;;;;;;;16.53;15.13;;;;;;;2.59;99.62;101352.75;5032964;28;20436;-44
2022/03/29 04:29:07;;;;;;;18.37;15.70;;;;;;;2.57;99.96;101350.25;5032844;28;20424;-46
2022/03/29 04:31:35;;;;;;;18.00;15.00;;;;;;;2.58;99.77;101353.72;5031860;28;20480;-47
2022/03/29 04:34:02;;;;;;;16.50;14.80;;;;;;;2.61;100.00;101350.81;5032098;28;21021;-43
2022/03/29 04:36:30;;;;;;;17.10;15.37;;;;;;;2.62;100.00;101340.16;5032572;28;20431;-43
2022/03/29 04:38:58;;;;;;;19.10;16.50;;;;;;;2.60;99.62;101344.72;5032096;28;20944;-43
2022/03/29 04:41:26;;;;;;;17.43;15.77;;;;;;;2.56;99.99;101332.78;5032221;28;20574;-43
2022/03/29 04:43:59;;;;;;;23.63;15.47;;;;;;;2.50;99.56;101341.22;5031666;28;20575;-45
2022/03/29 04:46:27;;;;;;;16.13;14.83;;;;;;;2.44;99.12;101333.00;5058691;28;20428;-47
2022/03/29 04:48:54;;;;;;;16.83;14.90;;;;;;;2.38;99.19;101328.25;5066766;28;20438;-43
2022/03/29 04:51:22;;;;;;;16.83;15.33;;;;;;;2.33;98.83;101331.25;5071901;28;20462;-44
2022/03/29 04:53:50;;;;;;;16.13;14.90;;;;;;;2.29;99.01;101331.66;5071684;28;20473;-44
2022/03/29 04:56:18;;;;;;;18.93;15.20;;;;;;;2.27;98.79;101330.97;5072181;28;20430;-44
2022/03/29 04:58:46;;;;;;;16.57;15.03;;;;;;;2.22;98.64;101324.28;5072074;28;20430;-43
2022/03/29 05:01:15;;;;;;;18.43;15.17;;;;;;;2.20;99.04;101334.09;5071826;28;20462;-43
2022/03/29 05:03:43;;;;;;;14.60;13.40;;;;;;;2.19;98.70;101326.31;5071412;28;21187;-43
2022/03/29 05:06:10;;;;;;;17.33;15.53;;;;;;;2.20;98.75;101333.25;5071628;28;20434;-43
2022/03/29 05:08:38;;;;;;;20.17;15.07;;;;;;;2.20;98.85;101326.22;5071866;28;20438;-43
2022/03/29 05:11:06;;;;;;;16.10;13.90;;;;;;;2.23;99.14;101330.38;5071408;28;20446;-45
2022/03/29 05:13:33;;;;;;;16.73;15.20;;;;;;;2.28;99.04;101338.72;5070949;28;20818;-43
2022/03/29 05:16:01;;;;;;;19.73;15.20;;;;;;;2.37;99.87;101337.94;5071751;28;20798;-43
2022/03/29 05:18:30;;;;;;;17.27;15.57;;;;;;;2.50;99.56;101335.94;5071637;28;20525;-45
2022/03/29 05:20:58;;;;;;;17.13;14.73;;;;;;;2.58;99.77;101336.13;5071459;28;20457;-43
2022/03/29 05:23:26;;;;;;;17.60;14.80;;;;;;;2.72;99.71;101325.22;5071107;28;20454;-43
2022/03/29 05:25:54;;;;;;;16.70;13.53;;;;;;;2.83;99.56;101332.22;5071654;28;20430;-46
2022/03/29 05:28:21;;;;;;;16.20;14.57;;;;;;;2.90;99.79;101335.19;5071379;28;20837;-43
2022/03/29 05:30:50;;;;;;;15.63;14.33;;;;;;;2.97;99.46;101331.03;5071330;28;20450;-47
2022/03/29 05:33:18;;;;;;;17.67;14.57;;;;;;;3.03;99.61;101336.59;5070888;28;20474;-43
2022/03/29 05:35:47;;;;;;;15.00;13.70;;;;;;;3.09;99.42;101329.94;5071773;28;20435;-43
2022/03/29 05:38:14;;;;;;;15.10;13.80;;;;;;;3.18;99.61;101334.41;5071385;28;20445;-43
2022/03/29 05:40:42;;;;;;;15.33;14.10;;;;;;;3.29;99.34;101321.97;5071100;28;20457;-45
2022/03/29 05:43:11;;;;;;;19.60;16.80;;;;;;;3.47;99.45;101331.84;5072934;28;20431;-43
2022/03/29 05:45:39;;;;;;;21.77;15.27;;;;;;;3.64;98.90;101313.56;5067758;28;20431;-43
2022/03/29 05:50:55;;;;;;;17.23;13.67;;;;;;;4.74;99.19;101320.88;5075031;28;20454;-43
2022/03/29 05:53:23;;;;;;;14.30;13.03;;;;;;;5.08;99.45;101321.13;5074605;28;21560;-44
2022/03/29 05:55:51;;;;;;;14.50;13.00;;;;;;;5.42;98.71;101329.28;5075325;28;20434;-43
2022/03/29 05:58:18;;;;;;;14.00;12.67;;;;;;;5.70;97.53;101328.28;5075121;28;20434;-44
2022/03/29 06:00:46;;;;;;;20.13;14.13;;;;;;;6.03;96.17;101330.25;5074779;28;20466;-45
2022/03/29 06:03:14;;;;;;;14.47;13.17;;;;;;;6.57;95.19;101325.69;5074786;28;20509;-44
2022/03/29 06:05:43;;;;;;;14.13;12.83;;;;;;;7.11;95.23;101321.78;5075122;28;20430;-43
2022/03/29 06:08:12;;;;;;;18.93;12.00;;;;;;;7.33;87.72;101313.25;5075081;28;20434;-43
2022/03/29 06:10:41;;;;;;;23.83;11.50;;;;;;;7.78;84.82;101310.19;5075138;28;20454;-45
2022/03/29 06:13:10;;;;;;;16.77;10.70;;;;;;;8.17;81.78;101311.19;5074766;28;20478;-45
2022/03/29 06:15:38;;;;;;;13.53;11.20;;;;;;;8.45;76.13;101305.56;5075230;28;20813;-45
2022/03/29 06:18:06;;;;;;;18.03;11.40;;;;;;;8.66;76.44;101303.19;5075177;28;20438;-44
2022/03/29 06:20:34;;;;;;;16.67;10.83;;;;;;;8.83;72.27;101308.28;5074649;28;20438;-46
2022/03/29 06:23:01;;;;;;;17.00;11.00;;;;;;;9.23;72.00;101309.94;5075046;28;20441;-45
2022/03/29 06:25:32;;;;;;;12.20;10.70;;;;;;;9.69;72.77;101310.00;5074708;28;20453;-45
2022/03/29 06:27:59;;;;;;;14.93;11.37;;;;;;;10.04;71.68;101314.72;5074846;28;20454;-46
2022/03/29 06:30:27;;;;;;;12.80;9.03;;;;;;;10.45;68.82;101305.38;5074417;28;20820;-45
2022/03/29 06:32:55;;;;;;;13.13;9.43;;;;;;;10.65;64.65;101311.00;5074435;28;20868;-44
2022/03/29 06:35:24;;;;;;;15.57;9.57;;;;;;;10.98;63.15;101303.47;5074127;28;20829;-45
2022/03/29 06:37:53;;;;;;;11.43;8.77;;;;;;;11.31;62.20;101310.06;5074454;28;20430;-44
2022/03/29 06:40:21;;;;;;;11.13;8.03;;;;;;;11.44;59.03;101301.38;5074445;28;20433;-44
2022/03/29 06:42:50;;;;;;;17.07;8.07;;;;;;;11.79;56.85;101302.38;5074491;28;20426;-44
2022/03/29 06:45:19;;;;;;;12.27;8.00;;;;;;;11.84;57.85;101298.09;5066326;28;20510;-45
2022/03/29 06:47:47;;;;;;;14.10;8.53;;;;;;;12.00;58.05;101291.69;5066345;28;20418;-45
2022/03/29 06:50:15;;;;;;;15.10;8.33;;;;;;;12.15;53.22;101303.97;5074562;28;20446;-44
2022/03/29 06:52:44;;;;;;;19.03;9.07;;;;;;;12.16;55.11;101300.25;5074178;28;20531;-44
2022/03/29 06:55:14;;;;;;;16.43;9.20;;;;;;;12.33;56.13;101295.47;5073781;28;20466;-44
2022/03/29 06:57:42;;;;;;;12.20;9.30;;;;;;;12.59;53.87;101284.94;5074192;28;20441;-44
2022/03/29 07:00:12;;;;;;;13.90;10.27;;;;;;;12.17;53.85;101295.72;5073991;28;20945;-44
2022/03/29 07:02:40;;;;;;;15.10;12.07;;;;;;;11.66;54.78;101295.84;5074207;28;20458;-45
2022/03/29 07:05:09;;;;;;;17.47;12.23;;;;;;;11.08;54.60;101294.16;5073962;28;20463;-44
2022/03/29 07:07:37;;;;;;;13.33;12.13;;;;;;;9.70;58.20;101303.69;5074321;28;20437;-45
2022/03/29 07:12:53;;;;;;;16.30;14.07;;;;;;;8.26;63.46;101314.69;5074280;28;20433;-43
2022/03/29 07:15:24;;;;;;;16.17;12.63;;;;;;;8.09;64.98;101311.22;5073901;28;20469;-43
2022/03/29 07:17:53;;;;;;;27.23;14.97;;;;;;;7.74;65.90;101309.69;5074396;28;20426;-45
2022/03/29 07:20:21;;;;;;;14.83;13.37;;;;;;;7.76;66.65;101297.06;5073830;28;20802;-43
2022/03/29 07:22:50;;;;;;;13.20;11.70;;;;;;;7.37;67.38;101296.03;5073742;28;20431;-44
2022/03/29 07:25:20;;;;;;;15.73;11.60;;;;;;;7.08;69.99;101296.44;5073695;28;20834;-43
2022/03/29 07:27:49;;;;;;;20.60;12.60;;;;;;;7.03;70.30;101296.09;5074029;28;20430;-44
2022/03/29 07:30:17;;;;;;;17.13;11.90;;;;;;;7.10;71.00;101293.63;5073693;28;20933;-43
2022/03/29 07:32:48;;;;;;;12.97;10.60;;;;;;;6.98;72.67;101297.56;5073743;28;20545;-43
2022/03/29 07:35:17;;;;;;;14.47;12.33;;;;;;;6.71;72.71;101295.94;5072989;28;20462;-43
2022/03/29 07:37:45;;;;;;;13.43;11.43;;;;;;;6.90;73.29;101292.22;5074001;28;20774;-43
2022/03/29 07:40:15;;;;;;;15.80;10.87;;;;;;;6.95;73.15;101296.06;5073408;28;20438;-44
2022/03/29 07:42:43;;;;;;;15.27;11.13;;;;;;;6.94;72.38;101289.09;5073391;28;21163;-44
2022/03/29 07:45:12;;;;;;;20.03;11.73;;;;;;;7.03;71.50;101287.28;5065602;28;20470;-44
2022/03/29 07:47:41;;;;;;;11.43;10.33;;;;;;;7.21;72.35;101285.38;5065655;28;20427;-47
2022/03/29 07:50:31;;;;;;;13.43;10.63;;;;;;;6.90;68.48;101286.94;5073987;28;20434;-44
2022/03/29 07:53:03;;;;;;;13.50;10.97;;;;;;;7.22;70.79;101287.88;5073487;28;20538;-44
2022/03/29 07:55:31;;;;;;;11.50;9.93;;;;;;;7.52;67.18;101283.78;5073545;28;20438;-44
2022/03/29 07:58:12;;;;;;;12.47;11.17;;;;;;;7.30;68.64;101289.72;5073634;28;20488;-43
2022/03/29 08:00:40;;;;;;;12.57;8.60;;;;;;;7.11;68.69;101288.16;5073142;28;21167;-44
2022/03/29 08:03:09;;;;;;;14.53;10.43;;;;;;;7.08;71.15;101277.88;5073157;28;20466;-46
2022/03/29 08:05:41;;;;;;;9.23;8.00;;;;;;;7.06;69.74;101285.16;5072688;28;20521;-45
2022/03/29 08:08:11;;;;;;;14.50;9.20;;;;;;;6.91;68.98;101268.19;5073555;28;20426;-45
2022/03/29 08:10:39;;;;;;;15.63;7.83;;;;;;;6.84;70.16;101283.06;5072955;28;20431;-44
2022/03/29 08:13:08;;;;;;;11.20;7.50;;;;;;;6.88;69.85;101284.44;5072893;28;20460;-43
2022/03/29 08:15:36;;;;;;;10.83;7.80;;;;;;;6.92;69.98;101277.81;5072940;28;20713;-44
2022/03/29 08:18:07;;;;;;;12.50;8.63;;;;;;;6.90;70.82;101276.31;5073316;28;20507;-43
2022/03/29 08:20:35;;;;;;;16.50;7.87;;;;;;;6.78;69.14;101274.94;5072807;28;20430;-43
2022/03/29 08:23:05;;;;;;;10.03;7.13;;;;;;;6.48;68.00;101276.28;5072563;28;20438;-43
2022/03/29 08:25:35;;;;;;;8.03;6.40;;;;;;;6.64;69.09;101286.97;5072642;28;20445;-44
2022/03/29 08:28:03;;;;;;;11.67;6.67;;;;;;;6.68;69.17;101283.84;5072989;28;20430;-45
2022/03/29 08:30:32;;;;;;;9.80;6.23;;;;;;;6.62;69.24;101278.34;5072639;28;20914;-43
2022/03/29 08:33:02;;;;;;;6.83;6.20;;;;;;;6.64;67.94;101263.09;5072643;28;20430;-43
2022/03/29 08:35:30;;;;;;;14.03;6.30;;;;;;;6.63;68.22;101280.00;5072475;28;20913;-43
2022/03/29 08:37:57;;;;;;;13.17;6.00;;;;;;;6.76;69.38;101269.78;5072244;28;20436;-44
2022/03/29 08:40:46;;;;;;;10.67;5.90;;;;;;;6.88;69.63;101276.47;5072326;28;20455;-44
2022/03/29 08:43:15;;;;;;;10.97;5.53;;;;;;;6.74;66.33;101269.13;5072224;28;20433;-44
2022/03/29 08:45:48;;;;;;;12.13;5.90;;;;;;;6.98;68.26;101257.78;5065050;28;20450;-44
2022/03/29 08:48:17;;;;;;;6.17;5.23;;;;;;;7.10;66.27;101253.84;5064320;28;20866;-44
2022/03/29 08:50:45;;;;;;;7.53;4.93;;;;;;;6.92;65.32;101261.06;5072499;28;20817;-43
2022/03/29 08:53:16;;;;;;;11.90;5.70;;;;;;;7.24;63.46;101253.22;5072275;28;20473;-43
2022/03/29 08:55:46;;;;;;;20.30;5.53;;;;;;;7.30;63.42;101249.91;5072314;28;20482;-43
2022/03/29 08:58:13;;;;;;;11.43;5.53;;;;;;;7.26;61.24;101255.72;5072503;28;20813;-45
2022/03/29 09:00:42;;;;;;;10.07;4.60;;;;;;;7.13;60.54;101264.97;5072140;28;20903;-44
2022/03/29 09:03:11;;;;;;;7.17;5.73;;;;;;;7.04;62.44;101250.03;5072290;28;20513;-45
2022/03/29 09:05:39;;;;;;;9.43;4.80;;;;;;;7.21;63.67;101251.72;5072339;28;20488;-47
2022/03/29 09:08:09;;;;;;;13.20;6.00;;;;;;;7.46;62.56;101247.28;5072119;28;20852;-46
2022/03/29 09:10:43;;;;;;;13.33;6.10;;;;;;;7.72;62.00;101236.53;5071595;28;20925;-44
2022/03/29 09:13:18;;;;;;;17.00;6.03;;;;;;;7.76;61.44;101237.84;5071506;28;20513;-46
2022/03/29 09:15:47;;;;;;;14.30;5.00;;;;;;;8.01;60.74;101228.03;5071964;28;20833;-44
2022/03/29 09:18:15;;;;;;;9.97;5.97;;;;;;;7.75;60.74;101228.22;5074165;28;20461;-45
2022/03/29 09:20:42;;;;;;;12.30;5.57;;;;;;;7.41;61.30;101233.66;5075815;28;20450;-43
2022/03/29 09:23:14;;;;;;;7.03;4.27;;;;;;;7.67;58.10;101231.72;5075554;28;20775;-44
2022/03/29 09:25:47;;;;;;;9.10;5.23;;;;;;;7.91;58.37;101232.69;5075886;28;20426;-45
2022/03/29 09:28:17;;;;;;;8.10;5.00;;;;;;;8.20;57.65;101230.34;5076093;28;20791;-44
2022/03/29 09:30:47;;;;;;;15.50;5.80;;;;;;;8.27;57.35;101233.97;5075782;28;20462;-44
2022/03/29 09:33:16;;;;;;;11.83;4.43;;;;;;;8.47;58.54;101229.97;5075356;28;20951;-43
2022/03/29 09:35:57;;;;;;;10.20;5.53;;;;;;;8.44;58.40;101217.00;5075928;28;20474;-46
2022/03/29 09:38:30;;;;;;;8.33;5.53;;;;;;;8.47;59.36;101231.78;5075559;28;20433;-44
2022/03/29 09:40:58;;;;;;;11.30;5.40;;;;;;;8.42;56.37;101208.41;5075683;28;20442;-46
2022/03/29 09:43:29;;;;;;;8.83;5.20;;;;;;;8.02;59.62;101211.94;5075067;28;20484;-46
2022/03/29 09:46:00;;;;;;;15.53;6.07;;;;;;;8.07;59.69;101206.94;5068071;28;20914;-43
2022/03/29 09:48:34;;;;;;;13.80;5.73;;;;;;;7.92;60.46;101219.25;5067445;28;20971;-45
2022/03/29 09:51:21;;;;;;;8.97;5.57;;;;;;;7.71;57.51;101225.06;5075979;28;20967;-43
2022/03/29 09:53:57;;;;;;;11.67;4.40;;;;;;;8.15;56.92;101208.75;5076168;28;20485;-44
2022/03/29 09:56:28;;;;;;;17.50;5.13;;;;;;;7.93;55.32;101194.34;5076322;28;20434;-43
2022/03/29 09:59:17;;;;;;;18.33;4.67;;;;;;;8.27;56.09;101199.44;5076209;28;20438;-44
2022/03/29 10:01:51;;;;;;;8.03;4.47;;;;;;;7.91;56.02;101192.88;5075971;28;20457;-50
2022/03/29 10:04:20;;;;;;;6.20;5.00;;;;;;;8.04;56.95;101206.44;5075539;28;20857;-43
2022/03/29 10:06:50;;;;;;;10.97;4.53;;;;;;;8.73;57.12;101195.97;5076136;28;20426;-44
2022/03/29 10:09:26;;;;;;;8.53;4.30;;;;;;;9.09;51.66;101190.94;5076202;28;20430;-45
2022/03/29 10:11:57;;;;;;;14.97;5.70;;;;;;;9.03;51.80;101193.47;5075735;28;20449;-43
2022/03/29 10:14:27;;;;;;;6.90;4.10;;;;;;;8.76;52.67;101189.47;5075658;28;20539;-45
2022/03/29 10:16:56;;;;;;;5.97;4.20;;;;;;;8.94;54.23;101194.50;5075748;28;20437;-43
2022/03/29 10:19:24;;;;;;;9.93;4.40;;;;;;;9.40;54.38;101180.25;5075918;28;20444;-46
2022/03/29 10:21:55;;;;;;;19.60;5.30;;;;;;;9.71;53.25;101180.13;5075175;28;20456;-44
2022/03/29 10:24:23;;;;;;;9.30;5.63;;;;;;;9.58;54.28;101178.13;5075240;28;20502;-45
2022/03/29 10:26:53;;;;;;;11.93;5.93;;;;;;;9.38;54.41;101174.25;5075675;28;20437;-45
2022/03/29 10:29:21;;;;;;;5.27;4.77;;;;;;;9.49;51.99;101191.66;5074981;28;20430;-44
2022/03/29 10:31:52;;;;;;;6.53;4.93;;;;;;;9.67;50.71;101166.38;5075269;28;20457;-44
2022/03/29 10:34:22;;;;;;;10.77;5.23;;;;;;;9.65;51.99;101178.19;5075122;28;20476;-43
2022/03/29 10:37:13;;;;;;;8.77;4.50;;;;;;;9.49;48.77;101181.00;5075417;28;20426;-43
2022/03/29 10:39:50;;;;;;;5.20;4.07;;;;;;;8.97;50.43;101176.38;5075251;28;21008;-44
2022/03/29 10:42:26;;;;;;;13.37;4.30;;;;;;;8.71;50.89;101178.53;5074722;28;20443;-44
2022/03/29 10:45:03;;;;;;;8.90;4.93;;;;;;;9.04;53.52;101166.72;5068679;28;20546;-44
2022/03/29 10:48:09;;;;;;;6.20;4.77;;;;;;;9.63;51.91;101154.44;5057246;28;20420;-44
2022/03/29 10:50:58;;;;;;;8.83;5.03;;;;;;;9.25;52.25;101158.91;5054752;28;20431;-44
2022/03/29 10:53:29;;;;;;;6.87;4.83;;;;;;;9.41;51.66;101169.41;5054506;28;20458;-46
2022/03/29 10:56:20;;;;;;;8.00;5.30;;;;;;;9.83;51.10;101157.38;5054969;28;20843;-45
2022/03/29 10:59:15;;;;;;;10.67;5.80;;;;;;;9.72;46.79;101155.19;5054652;28;20449;-43
2022/03/29 11:01:43;;;;;;;7.53;5.50;;;;;;;9.43;46.84;101162.09;5053950;28;20463;-44
2022/03/29 11:04:20;;;;;;;16.13;4.70;;;;;;;8.88;50.55;101162.31;5054471;28;20463;-44
2022/03/29 11:07:10;;;;;;;8.63;4.60;;;;;;;9.10;48.08;101162.50;5054836;28;20423;-47
2022/03/29 11:09:41;;;;;;;4.90;4.23;;;;;;;9.34;49.25;101147.19;5054230;28;20435;-43
2022/03/29 11:12:38;;;;;;;6.50;4.50;;;;;;;9.18;50.67;101157.13;5054342;28;20459;-45
2022/03/29 11:15:45;;;;;;;8.07;4.70;;;;;;;9.00;49.26;101160.06;5053956;28;20569;-43
2022/03/29 11:18:41;;;;;;;5.37;4.10;;;;;;;8.76;48.62;101154.91;5054224;28;20455;-44
2022/03/29 11:21:11;;;;;;;6.33;3.93;;;;;;;8.77;48.60;101153.91;5054043;28;20451;-46
2022/03/29 11:23:40;;;;;;;8.77;4.53;;;;;;;8.49;50.47;101156.19;5053845;28;20466;-43
2022/03/29 11:26:10;;;;;;;6.80;4.63;;;;;;;8.40;50.95;101154.56;5054127;28;20424;-46
2022/03/29 11:28:47;;;;;;;10.13;4.80;;;;;;;8.40;52.11;101156.38;5053741;28;20435;-47
2022/03/29 11:31:15;;;;;;;8.80;5.07;;;;;;;8.36;52.66;101152.44;5054317;28;20451;-43
2022/03/29 11:33:45;;;;;;;5.47;4.30;;;;;;;8.39;50.10;101154.75;5053900;28;20818;-43
2022/03/29 11:36:14;;;;;;;4.17;3.87;;;;;;;8.29;47.94;101145.16;5053741;28;20986;-44
2022/03/29 11:38:41;;;;;;;9.40;5.03;;;;;;;8.45;47.93;101143.44;5054062;28;20810;-45
2022/03/29 11:41:21;;;;;;;4.73;4.33;;;;;;;8.48;49.41;101148.41;5075177;22;20490;-48
2022/03/29 11:43:53;;;;;;;8.50;4.30;;;;;;;8.74;49.89;101141.78;5058200;28;20458;-51